D/T METAR WX W/DIR W/SPE G/SPE TEMP DEWP
27/05/19 08:20 EGTE 270720Z 26006KT 230V290 9999 FEW018 13/11 Q1014 W (260°) 6.9mph 13°C 11°C
27/05/19 07:50 EGTE 270650Z 26005KT 210V310 9999 FEW030 13/10 Q1014 W (260°) 5.8mph 13°C 10°C
27/05/19 07:20 EGTE 270620Z VRB03KT 9999 FEW020 12/10 Q1014 N (0°) 3.5mph 12°C 10°C
27/05/19 06:50 EGTE 270550Z 30003KT 9999 FEW020 11/10 Q1014 WNW (300°) 3.5mph 11°C 10°C
27/05/19 06:20 EGTE 270520Z VRB02KT 9999 FEW020 10/09 Q1014 N (0°) 2.3mph 10°C 9°C
27/05/19 05:50 EGTE 270450Z 33003KT 9999 FEW020 10/09 Q1014 NNW (330°) 3.5mph 10°C 9°C
27/05/19 05:20 EGTE 270420Z 31005KT 9999 FEW020 09/09 Q1014 NW (310°) 5.8mph 9°C 9°C
27/05/19 04:50 EGTE 270350Z 33004KT 9999 FEW020 09/09 Q1014 NNW (330°) 4.6mph 9°C 9°C
26/05/19 23:50 EGTE 262250Z 29007KT CAVOK 11/10 Q1014 WNW (290°) 8.1mph 11°C 10°C
26/05/19 23:20 EGTE 262220Z 30006KT CAVOK 11/10 Q1014 WNW (300°) 6.9mph 11°C 10°C
26/05/19 22:50 EGTE 262150Z 29008KT CAVOK 11/09 Q1014 WNW (290°) 9.2mph 11°C 9°C
26/05/19 22:20 EGTE 262120Z 28005KT CAVOK 12/09 Q1014 W (280°) 5.8mph 12°C 9°C
26/05/19 21:50 EGTE 262050Z 28004KT 240V300 CAVOK 13/09 Q1014 W (280°) 4.6mph 13°C 9°C
26/05/19 21:20 EGTE 262020Z 28005KT 240V300 CAVOK 13/09 Q1014 W (280°) 5.8mph 13°C 9°C
26/05/19 20:50 EGTE 261950Z 30006KT 260V330 CAVOK 14/09 Q1014 WNW (300°) 6.9mph 14°C 9°C
26/05/19 20:20 EGTE 261920Z 29006KT 250V330 9999 FEW030 16/11 Q1014 WNW (290°) 6.9mph 16°C 11°C
26/05/19 19:50 EGTE 261850Z 29010KT 240V330 9999 FEW025 16/10 Q1014 WNW (290°) 11.5mph 16°C 10°C
26/05/19 19:20 EGTE 261820Z 30010KT 9999 SCT022 16/11 Q1014 WNW (300°) 11.5mph 16°C 11°C
26/05/19 18:50 EGTE 261750Z 28008KT 250V320 9999 BKN022 16/11 Q1014 W (280°) 9.2mph 16°C 11°C
26/05/19 18:20 EGTE 261720Z 28010KT 250V340 9999 BKN018 17/13 Q1014 W (280°) 11.5mph 17°C 13°C
26/05/19 17:50 EGTE 261650Z 28012KT 250V310 9999 BKN015 17/14 Q1014 W (280°) 13.8mph 17°C 14°C
26/05/19 17:20 EGTE 261620Z 29009KT 260V330 9999 -RADZ BKN015 15/14 Q1014 -RA -DZ WNW (290°) 10.4mph 15°C 14°C
26/05/19 16:50 EGTE 261550Z 27012KT 240V330 9999 9000NE -RADZ BKN013 16/13 Q1014 -RA DZ W (270°) 13.8mph 16°C 13°C
26/05/19 16:20 EGTE 261520Z 28012KT 240V310 9999 BKN022 17/14 Q1014 W (280°) 13.8mph 17°C 14°C
26/05/19 15:50 EGTE 261450Z 27011KT 240V310 9999 BKN022 18/14 Q1014 W (270°) 12.7mph 18°C 14°C
26/05/19 15:20 EGTE 261420Z 27009KT 240V300 9999 BKN022 18/14 Q1014 W (270°) 10.4mph 18°C 14°C
26/05/19 14:50 EGTE 261350Z 28013KT 250V310 9999 BKN020 19/15 Q1014 W (280°) 15.0mph 19°C 15°C
26/05/19 14:20 EGTE 261320Z 25011KT 210V290 9999 SCT018 SCT030 19/14 Q1014 WSW (250°) 12.7mph 19°C 14°C
26/05/19 13:50 EGTE 261250Z 28010KT 9999 BKN018 18/14 Q1015 W (280°) 11.5mph 18°C 14°C
26/05/19 13:20 EGTE 261220Z 26011KT 230V300 9999 BKN022 20/17 Q1015 W (260°) 12.7mph 20°C 17°C
26/05/19 12:50 EGTE 261150Z 25011KT 220V290 9999 BKN022 18/14 Q1015 WSW (250°) 12.7mph 18°C 14°C
26/05/19 12:20 EGTE 261120Z 25011KT 230V290 9999 BKN020 18/14 Q1015 WSW (250°) 12.7mph 18°C 14°C
26/05/19 11:50 EGTE 261050Z 25009KT 210V280 9999 BKN018 18/14 Q1015 WSW (250°) 10.4mph 18°C 14°C
26/05/19 11:20 EGTE 261020Z 25009KT 210V290 9999 BKN018 16/13 Q1015 WSW (250°) 10.4mph 16°C 13°C
26/05/19 10:50 EGTE 260950Z 25009KT 230V290 9999 BKN018 17/13 Q1016 WSW (250°) 10.4mph 17°C 13°C
26/05/19 10:20 EGTE 260920Z 29007KT 260V330 9999 BKN016 17/14 Q1016 WNW (290°) 8.1mph 17°C 14°C
26/05/19 09:50 EGTE 260850Z 30008KT 270V330 9999 BKN016 18/14 Q1016 WNW (300°) 9.2mph 18°C 14°C
26/05/19 08:50 EGTE 260750Z VRB03KT 9999 BKN014 14/12 Q1016 N (0°) 3.5mph 14°C 12°C
26/05/19 08:20 EGTE 260720Z 20004KT 160V280 9999 FEW008 BKN013 14/12 Q1016 SSW (200°) 4.6mph 14°C 12°C
26/05/19 07:50 EGTE 260650Z 20004KT 9999 BKN011 13/11 Q1017 SSW (200°) 4.6mph 13°C 11°C
26/05/19 07:20 EGTE 260620Z 27005KT 220V330 9999 BKN008 13/11 Q1017 W (270°) 5.8mph 13°C 11°C
26/05/19 06:50 EGTE 260550Z VRB03KT 9999 BKN010 13/11 Q1017 N (0°) 3.5mph 13°C 11°C
26/05/19 06:20 EGTE 260520Z VRB03KT 9999 BKN009 13/11 Q1017 N (0°) 3.5mph 13°C 11°C
26/05/19 05:50 EGTE 260450Z VRB03KT 9999 BKN010 14/12 Q1017 N (0°) 3.5mph 14°C 12°C
26/05/19 05:20 EGTE 260420Z VRB03KT 9999 BKN011 13/12 Q1017 N (0°) 3.5mph 13°C 12°C
26/05/19 00:20 EGTE 252320Z 28005KT 240V320 9999 BKN010 14/13 Q1019 W (280°) 5.8mph 14°C 13°C
25/05/19 23:50 EGTE 252250Z 29005KT 250V320 9999 BKN010 13/12 Q1019 WNW (290°) 5.8mph 13°C 12°C
25/05/19 23:20 EGTE 252220Z 28006KT 240V330 9999 BKN010 14/12 Q1020 W (280°) 6.9mph 14°C 12°C